createdAt,value
2022-11-18T00:02:56.770Z,37.85
2022-11-18T00:09:21.185Z,37.96
2022-11-18T00:15:45.617Z,38.00
2022-11-18T00:22:09.895Z,38.07
2022-11-18T00:28:34.177Z,38.07
2022-11-18T00:34:58.491Z,38.16
2022-11-18T00:41:22.818Z,38.17
2022-11-18T00:47:47.144Z,38.59
2022-11-18T00:54:11.434Z,38.65
2022-11-18T01:00:35.866Z,38.55
2022-11-18T01:07:00.299Z,38.69
2022-11-18T01:13:39.836Z,38.64
2022-11-18T01:20:04.159Z,38.72
2022-11-18T01:26:28.443Z,38.78
2022-11-18T01:32:52.795Z,38.82
2022-11-18T01:39:17.469Z,39.35
2022-11-18T01:46:12.650Z,39.11
2022-11-18T01:52:37.007Z,39.40
2022-11-18T01:59:07.163Z,39.25
2022-11-18T02:05:31.594Z,39.55
2022-11-18T02:12:11.304Z,39.55
2022-11-18T02:18:47.751Z,39.61
2022-11-18T02:25:15.058Z,39.70
2022-11-18T02:32:00.568Z,39.93
2022-11-18T02:38:27.618Z,39.85
2022-11-18T02:44:55.085Z,40.00
2022-11-18T02:51:19.503Z,40.17
2022-11-18T02:57:43.823Z,40.08
2022-11-18T03:04:08.158Z,40.27
2022-11-18T03:10:32.460Z,40.25
2022-11-18T03:16:55.842Z,40.26
2022-11-18T03:23:31.972Z,40.39
2022-11-18T03:30:02.190Z,40.44
2022-11-18T03:36:26.478Z,40.63
2022-11-18T03:42:53.337Z,40.59
2022-11-18T03:49:20.299Z,40.68
2022-11-18T03:55:44.671Z,40.52
2022-11-18T04:02:21.006Z,40.62
2022-11-18T04:08:54.165Z,40.86
2022-11-18T04:15:18.476Z,40.68
2022-11-18T04:21:42.759Z,40.80
2022-11-18T04:28:07.197Z,40.85
2022-11-18T04:34:31.605Z,41.02
2022-11-18T04:40:55.904Z,41.03
2022-11-18T04:47:23.013Z,40.79
2022-11-18T04:53:47.702Z,40.88
2022-11-18T05:00:12.224Z,40.86
2022-11-18T05:06:36.515Z,41.08
2022-11-18T05:13:10.037Z,40.89
2022-11-18T05:19:34.367Z,41.08
2022-11-18T05:26:02.409Z,40.83
2022-11-18T05:32:27.176Z,40.89
2022-11-18T05:38:51.480Z,41.14
2022-11-18T05:45:15.990Z,41.16
2022-11-18T05:51:40.280Z,41.23
2022-11-18T05:58:04.704Z,41.31
2022-11-18T06:04:29.489Z,40.87
2022-11-18T06:10:53.988Z,40.90
2022-11-18T06:17:18.263Z,40.37
2022-11-18T06:23:42.527Z,40.12
2022-11-18T06:30:06.906Z,39.88
2022-11-18T06:36:31.210Z,39.57
2022-11-18T06:42:54.244Z,39.46
2022-11-18T06:49:18.776Z,39.26
2022-11-18T06:55:43.513Z,38.94
2022-11-18T07:02:13.714Z,38.77
2022-11-18T07:08:38.337Z,38.84
2022-11-18T07:15:02.611Z,38.68
2022-11-18T07:21:27.030Z,38.61
2022-11-18T07:27:51.412Z,38.26
2022-11-18T07:34:15.840Z,38.26
2022-11-18T07:40:40.136Z,38.60
2022-11-18T07:47:16.494Z,38.62
2022-11-18T07:53:40.887Z,38.64
2022-11-18T08:00:05.208Z,38.82
2022-11-18T08:06:29.808Z,39.01
2022-11-18T08:12:54.179Z,39.69
2022-11-18T08:19:18.817Z,39.65
2022-11-18T08:25:43.539Z,39.65
2022-11-18T08:32:19.819Z,39.58
2022-11-18T08:38:44.145Z,39.27
2022-11-18T08:45:08.451Z,39.11
2022-11-18T08:51:32.743Z,39.28
2022-11-18T08:57:57.039Z,39.18
2022-11-18T09:04:21.058Z,38.88
2022-11-18T09:10:45.592Z,38.27
2022-11-18T09:17:09.882Z,38.31
2022-11-18T09:23:52.475Z,38.52
2022-11-18T09:30:16.768Z,38.42
2022-11-18T09:36:44.021Z,38.26
2022-11-18T09:43:20.246Z,38.18
2022-11-18T09:49:44.646Z,38.08
2022-11-18T09:56:15.287Z,38.20
2022-11-18T10:02:39.603Z,38.26
2022-11-18T10:09:12.843Z,38.17
2022-11-18T10:15:46.153Z,38.10
2022-11-18T10:22:21.033Z,38.01
2022-11-18T10:29:03.445Z,38.01
2022-11-18T10:35:27.794Z,37.94
2022-11-18T10:41:54.908Z,37.86
2022-11-18T10:48:25.187Z,37.80
2022-11-18T10:54:55.467Z,37.93
2022-11-18T11:01:18.251Z,37.82
2022-11-18T11:07:42.632Z,37.84
2022-11-18T11:14:07.247Z,37.80
2022-11-18T11:20:32.815Z,37.80
2022-11-18T11:34:04.128Z,37.81
2022-11-18T11:40:25.461Z,37.75
2022-11-18T11:46:52.829Z,37.58
2022-11-18T11:53:17.172Z,37.60
2022-11-18T11:59:47.614Z,37.38
2022-11-18T12:06:17.952Z,37.42
2022-11-18T12:12:57.036Z,37.41
2022-11-18T12:19:39.734Z,37.37
2022-11-18T12:26:21.081Z,37.11
2022-11-18T12:32:45.385Z,37.11
2022-11-18T12:39:09.786Z,37.14
2022-11-18T12:45:34.200Z,37.03
2022-11-18T12:51:58.595Z,36.99
2022-11-18T12:58:31.309Z,36.99
2022-11-18T13:04:55.621Z,36.78
2022-11-18T13:11:21.185Z,36.71
2022-11-18T13:18:12.692Z,36.83
2022-11-18T13:24:37.030Z,36.73
2022-11-18T13:31:07.405Z,36.73
2022-11-18T13:37:31.912Z,36.75
2022-11-18T13:43:56.306Z,36.57
2022-11-18T13:50:23.147Z,36.85
2022-11-18T13:57:02.494Z,37.21
2022-11-18T14:03:26.827Z,37.83
2022-11-18T14:10:09.504Z,38.18
2022-11-18T14:16:33.934Z,38.68
2022-11-18T14:22:59.355Z,38.75
2022-11-18T14:29:39.018Z,38.42
2022-11-18T14:36:03.406Z,38.49
2022-11-18T14:42:27.029Z,38.14
2022-11-18T14:48:51.295Z,37.99
2022-11-18T14:55:15.589Z,37.72
2022-11-18T15:01:39.980Z,37.61
2022-11-18T15:08:04.364Z,37.42
2022-11-18T15:14:28.643Z,37.62
2022-11-18T15:20:53.078Z,37.64
2022-11-18T15:27:17.387Z,37.75
2022-11-18T15:33:40.837Z,37.47
2022-11-18T15:40:07.855Z,37.55
2022-11-18T15:46:32.235Z,37.75
2022-11-18T15:52:56.560Z,37.60
2022-11-18T15:59:21.093Z,37.20
2022-11-18T16:05:45.501Z,37.11
2022-11-18T16:12:11.152Z,36.99
2022-11-18T16:18:40.570Z,36.89
2022-11-18T16:25:05.378Z,36.78
2022-11-18T16:31:28.220Z,36.87
2022-11-18T16:37:53.100Z,36.81
2022-11-18T16:44:17.437Z,36.67
2022-11-18T16:50:41.796Z,36.62
2022-11-18T16:57:06.232Z,36.53
2022-11-18T17:03:30.545Z,36.31
2022-11-18T17:09:54.963Z,36.46
2022-11-18T17:16:19.267Z,36.36
2022-11-18T17:22:36.148Z,36.17
2022-11-18T17:29:00.257Z,36.13
2022-11-18T17:35:24.542Z,36.03
2022-11-18T17:41:47.256Z,36.03
2022-11-18T17:48:11.717Z,35.84
2022-11-18T17:54:36.098Z,35.70
2022-11-18T18:01:00.710Z,35.71
2022-11-18T18:07:25.415Z,35.86
2022-11-18T18:13:48.454Z,36.20
2022-11-18T18:20:12.848Z,36.57
2022-11-18T18:26:37.147Z,36.65
2022-11-18T18:32:52.565Z,36.49
2022-11-18T18:39:17.581Z,36.63
2022-11-18T18:45:40.371Z,36.66
2022-11-18T18:52:07.629Z,36.53
2022-11-18T18:58:31.948Z,36.49
2022-11-18T19:04:56.383Z,36.42
2022-11-18T19:11:00.732Z,36.56
2022-11-18T19:17:25.116Z,36.36
2022-11-18T19:23:49.523Z,36.49
2022-11-18T19:30:13.845Z,36.38
2022-11-18T19:36:38.391Z,36.31
2022-11-18T19:42:51.443Z,36.38
2022-11-18T19:49:15.805Z,36.28
2022-11-18T19:55:40.222Z,36.12
2022-11-18T20:02:10.419Z,36.00
2022-11-18T20:08:34.795Z,36.13
2022-11-18T20:14:59.138Z,36.11
2022-11-18T20:21:23.423Z,36.07
2022-11-18T20:27:47.757Z,35.76
2022-11-18T20:34:17.731Z,35.76
2022-11-18T20:40:42.005Z,35.87
2022-11-18T20:47:05.242Z,35.89
2022-11-18T20:53:29.662Z,36.00
2022-11-18T20:59:47.444Z,35.66
2022-11-18T21:06:14.311Z,35.65
2022-11-18T21:12:39.108Z,35.66
2022-11-18T21:19:03.438Z,35.65
2022-11-18T21:25:30.629Z,35.69
2022-11-18T21:31:54.942Z,35.53
2022-11-18T21:38:02.085Z,35.55
2022-11-18T21:44:26.484Z,35.59
2022-11-18T21:50:50.830Z,35.41
2022-11-18T21:57:17.801Z,35.60
2022-11-18T22:03:41.203Z,35.48
2022-11-18T22:09:55.484Z,35.56
2022-11-18T22:16:10.084Z,35.69
2022-11-18T22:22:34.211Z,35.63
2022-11-18T22:28:58.565Z,35.61
2022-11-18T22:35:12.964Z,35.86
2022-11-18T22:41:41.876Z,35.60
2022-11-18T22:48:06.217Z,35.72
2022-11-18T22:54:38.930Z,35.70
2022-11-18T23:01:04.223Z,35.82
2022-11-18T23:07:28.635Z,35.86
2022-11-18T23:13:51.486Z,36.00
2022-11-18T23:20:15.868Z,36.01
2022-11-18T23:26:48.915Z,36.17
2022-11-18T23:33:13.257Z,36.28
2022-11-18T23:39:37.570Z,36.07
2022-11-18T23:46:01.895Z,36.26
2022-11-18T23:52:26.340Z,36.28
2022-11-18T23:58:50.706Z,36.21
